This is the latest recevied weather packets stored in our database for station/object OK2ZAW-21. If no packets are shown the sender has not sent any weather packets the latest 10 day(s).
| Time | Temp. | Humidity | Pressure | Rain* | Wind** | Luminosity | Snow |
|---|---|---|---|---|---|---|---|
| 1788532105 | 28.33° C | 46% | 1017.8 hPa | - | - | 422 W/m² | - |
| 1788531480 | 26.11° C | 51% | 1017.9 hPa | - | - | 423 W/m² | - |
| 1788531168 | 27.78° C | 49% | 1018 hPa | - | - | 422 W/m² | - |
| 1788530856 | 27.78° C | 48% | 1018 hPa | - | - | 423 W/m² | - |
| 1788530544 | 26.67° C | 50% | 1017.9 hPa | - | - | 423 W/m² | - |
| 1788530232 | 26.11° C | 51% | 1017.6 hPa | - | - | 423 W/m² | - |
| 1788529919 | 26.11° C | 51% | 1018 hPa | - | - | 423 W/m² | - |
| 1788529607 | 27.22° C | 50% | 1018.1 hPa | - | - | 423 W/m² | - |
| 1788529295 | 26.11° C | 52% | 1018.1 hPa | - | - | 423 W/m² | - |
| 1788528983 | 26.11° C | 53% | 1018.2 hPa | - | - | 423 W/m² | - |
| 1788528671 | 25.56° C | 55% | 1018.2 hPa | - | - | 423 W/m² | - |
| 1788528359 | 25.56° C | 57% | 1018.3 hPa | - | - | 423 W/m² | - |
| 1788528047 | 25° C | 57% | 1017.9 hPa | - | - | 423 W/m² | - |
| 1788527753 | 25.56° C | 56% | 1018.4 hPa | - | - | 424 W/m² | - |
| 1788527424 | 25.56° C | 56% | 1018.6 hPa | - | - | 424 W/m² | - |
| 1788527111 | 25° C | 58% | 1018.7 hPa | - | - | 424 W/m² | - |
| 1788526799 | 25.56° C | 58% | 1018.8 hPa | - | - | 424 W/m² | - |
| 1788526488 | 25° C | 60% | 1018.7 hPa | - | - | 424 W/m² | - |
| 1788526176 | 24.44° C | 60% | 1018.3 hPa | - | - | 424 W/m² | - |
| 1788525864 | 26.67° C | 59% | 1018.9 hPa | - | - | 424 W/m² | - |
| 1788525552 | 25° C | 63% | 1019 hPa | - | - | 424 W/m² | - |
| 1788525240 | 25° C | 62% | 1019.1 hPa | - | - | 424 W/m² | - |
| 1788524928 | 24.44° C | 65% | 1019.1 hPa | - | - | 424 W/m² | - |
| 1788524616 | 23.89° C | 66% | 1019 hPa | - | - | 424 W/m² | - |
| 1788524304 | 24.44° C | 66% | 1019.1 hPa | - | - | 424 W/m² | - |
* Rain since midnight (hover to see other rain measurements)
** Current wind speed in m/s (hover to see current wind gust speed)